Oentsjerk, Netherlands
Current Conditions -  °F | °C
As of 5:42 AM on Thursday 23 Oct 2014 (Local Time) from EHLW Reporting Station
Light Rain Light Rain  
Wind Chill: 52°   Ceiling: 2100
Heat Index: 52°   Visibility: 3mi
Dew Point: 52°   Wind: 6mph
Humidity: 100%   Direction: 200°SSW
Pressure: 30.09"   Gusts: NA
Location:  53.25°N, 5.9°E
Report Text: EHLW 230342Z AUTO 20005KT 4900 -RADZ BKN021 OVC024 11/11 Q1019 GRN
Loading
Personal Weather Stations






























Interactive Weather Map
Tropical Storm Tracking
New forecast layout! Learn more

10-Day Weather Forecast

Advertisements
Track Severe Weather on mobile